Time;durP1;ratioP1;P1;durP2;ratioP2;P2;SDS_P1;SDS_P2;PMS_P1;PMS_P2;Temp;Humidity;BMP_temperature;BMP_pressure;BME280_temperature;BME280_humidity;BME280_pressure;Samples;Min_cycle;Max_cycle;Signal;HPM_P1;HPM_P2
2024/01/11 00:01:47;;;;;;;1999.90;999.90;;;-4.00;99.90;;;;;;5091432;28;20059;-62
2024/01/11 00:04:13;;;;;;;1999.90;999.90;;;-3.90;99.90;;;;;;5073688;28;20051;-62
2024/01/11 00:06:43;;;;;;;1999.90;999.90;;;-3.90;99.90;;;;;;5074337;28;20020;-67
2024/01/11 00:09:09;;;;;;;1999.90;999.90;;;-3.90;99.90;;;;;;5091035;28;20074;-67
2024/01/11 00:11:34;;;;;;;1999.90;999.90;;;-3.90;99.90;;;;;;5092600;28;20032;-67
2024/01/11 00:14:00;;;;;;;1999.90;999.90;;;-3.90;99.90;;;;;;5087259;28;20351;-68
2024/01/11 00:16:26;;;;;;;1999.90;999.90;;;-4.00;99.90;;;;;;5072898;28;20029;-68
2024/01/11 00:18:52;;;;;;;1999.90;999.90;;;-4.00;99.90;;;;;;5079502;28;20020;-68
2024/01/11 00:21:17;;;;;;;1999.90;999.90;;;-4.00;99.90;;;;;;5095412;28;20060;-64
2024/01/11 00:23:43;;;;;;;1999.90;999.90;;;-4.00;99.90;;;;;;5095814;28;20036;-62
2024/01/11 00:26:11;;;;;;;1999.90;999.90;;;-4.00;99.90;;;;;;5088598;28;20292;-67
2024/01/11 00:28:37;;;;;;;1999.90;999.90;;;-4.10;99.90;;;;;;5084948;28;20626;-68
2024/01/11 00:31:03;;;;;;;1999.90;999.90;;;-4.10;99.90;;;;;;5084348;28;20123;-68
2024/01/11 00:33:29;;;;;;;1999.90;999.90;;;-4.10;99.90;;;;;;5095164;28;20039;-68
2024/01/11 00:35:54;;;;;;;1999.90;999.90;;;-4.20;99.90;;;;;;5095184;28;20051;-67
2024/01/11 00:38:20;;;;;;;1999.90;999.90;;;-4.20;99.90;;;;;;5093551;28;20029;-68
2024/01/11 00:40:46;;;;;;;1999.90;999.90;;;-4.20;99.90;;;;;;5095569;28;20324;-67
2024/01/11 00:43:11;;;;;;;1999.90;999.90;;;-4.30;99.90;;;;;;5094308;28;20403;-68
2024/01/11 00:45:38;;;;;;;1999.90;999.90;;;-4.40;99.90;;;;;;5090309;28;20114;-68
2024/01/11 00:48:04;;;;;;;1999.90;999.90;;;-4.30;99.90;;;;;;5082209;28;20272;-62
2024/01/11 00:50:30;;;;;;;1999.90;999.90;;;-4.30;99.90;;;;;;5085619;28;20024;-67
2024/01/11 00:52:56;;;;;;;1999.90;999.90;;;-4.30;99.90;;;;;;5084739;28;20043;-62
2024/01/11 00:55:21;;;;;;;1999.90;999.90;;;-4.40;99.90;;;;;;5081959;28;20304;-68
2024/01/11 00:57:47;;;;;;;1999.90;999.90;;;-4.40;99.90;;;;;;5095571;28;20394;-68
2024/01/11 01:00:13;;;;;;;1999.90;999.90;;;-4.40;99.90;;;;;;5088366;28;20093;-68
2024/01/11 01:02:40;;;;;;;1999.90;999.90;;;-4.50;99.90;;;;;;5088241;28;20077;-68
2024/01/11 01:05:06;;;;;;;1999.90;999.90;;;-4.40;99.90;;;;;;5095011;28;20058;-67
2024/01/11 01:07:32;;;;;;;1999.90;999.90;;;-4.50;99.90;;;;;;5081415;28;20036;-61
2024/01/11 01:09:58;;;;;;;1999.90;999.90;;;-4.50;99.90;;;;;;5074601;28;20300;-68
2024/01/11 01:12:25;;;;;;;1999.90;999.90;;;-4.50;99.90;;;;;;5091805;28;20248;-67
2024/01/11 01:14:51;;;;;;;1999.90;999.90;;;-4.50;99.90;;;;;;5091618;28;20424;-62
2024/01/11 01:17:17;;;;;;;1999.90;999.90;;;-4.40;99.90;;;;;;5093342;28;20407;-68
2024/01/11 01:19:43;;;;;;;1999.90;999.90;;;-4.40;99.90;;;;;;5062617;28;20047;-68
2024/01/11 01:22:09;;;;;;;1999.90;999.90;;;-4.40;99.90;;;;;;5089907;28;20043;-62
2024/01/11 01:24:34;;;;;;;1999.90;999.90;;;-4.50;99.90;;;;;;5088126;28;20036;-68
2024/01/11 01:27:00;;;;;;;1999.90;999.90;;;-4.50;99.90;;;;;;5087863;28;20100;-67
2024/01/11 01:29:26;;;;;;;1999.90;999.90;;;-4.50;99.90;;;;;;5087906;28;20310;-68
2024/01/11 01:31:52;;;;;;;1999.90;999.90;;;-4.50;99.90;;;;;;5093894;28;20051;-67
2024/01/11 01:34:19;;;;;;;1999.90;999.90;;;-4.50;99.90;;;;;;5092492;28;20114;-68
2024/01/11 01:36:44;;;;;;;1999.90;999.90;;;-4.60;99.90;;;;;;5093954;28;20035;-67
2024/01/11 01:39:10;;;;;;;1999.90;999.90;;;-4.70;99.90;;;;;;5093865;28;20074;-64
2024/01/11 01:41:36;;;;;;;1999.90;999.90;;;-4.80;99.90;;;;;;5093700;28;20036;-68
2024/01/11 01:44:02;;;;;;;1999.90;999.90;;;-4.80;99.90;;;;;;5091703;28;20051;-67
2024/01/11 01:46:28;;;;;;;1999.90;999.90;;;-4.80;99.90;;;;;;5088125;28;20021;-67
2024/01/11 01:48:56;;;;;;;1999.90;999.90;;;-4.80;99.90;;;;;;5092873;28;20036;-67
2024/01/11 01:51:24;;;;;;;1999.90;999.90;;;-4.70;99.90;;;;;;5094091;28;20024;-68
2024/01/11 01:53:53;;;;;;;1999.90;999.90;;;-4.70;99.90;;;;;;5081706;28;20103;-68
2024/01/11 01:56:20;;;;;;;1999.90;999.90;;;-4.70;99.90;;;;;;5093419;28;20318;-67
2024/01/11 01:58:47;;;;;;;1999.90;999.90;;;-4.80;99.90;;;;;;5094397;28;20024;-62
2024/01/11 02:01:14;;;;;;;1999.90;999.90;;;-4.70;99.90;;;;;;5093537;28;20054;-67
2024/01/11 02:03:40;;;;;;;1999.90;999.90;;;-4.80;99.90;;;;;;5093497;28;20036;-68
2024/01/11 02:06:07;;;;;;;1999.90;999.90;;;-4.80;99.90;;;;;;5093073;28;20089;-66
2024/01/11 02:08:34;;;;;;;;;;;-4.80;99.90;;;;;;5093392;28;20036;-68
2024/01/11 02:11:00;;;;;;;1999.90;999.90;;;-4.90;99.90;;;;;;5092982;28;20265;-68
2024/01/11 02:13:26;;;;;;;1999.90;999.90;;;-4.90;99.90;;;;;;5094125;28;20051;-62
2024/01/11 02:15:52;;;;;;;1999.90;999.90;;;-5.00;99.90;;;;;;5089096;28;20066;-62
2024/01/11 02:18:18;;;;;;;1999.90;999.90;;;-5.00;99.90;;;;;;5080214;28;20029;-62
2024/01/11 02:20:44;;;;;;;1999.90;999.90;;;-5.10;99.90;;;;;;5088372;28;20095;-62
2024/01/11 02:23:17;;;;;;;1999.90;999.90;;;-5.10;99.90;;;;;;5092576;28;20384;-68
2024/01/11 02:25:43;;;;;;;1999.90;999.90;;;-5.10;99.90;;;;;;5093104;28;20035;-62
2024/01/11 02:28:08;;;;;;;1999.90;999.90;;;-5.10;99.90;;;;;;5090334;28;20411;-67
2024/01/11 02:30:34;;;;;;;1999.90;999.90;;;-5.20;99.90;;;;;;5093456;28;20115;-62
2024/01/11 02:33:01;;;;;;;1999.90;999.90;;;-5.10;99.90;;;;;;5092335;28;20048;-67
2024/01/11 02:35:28;;;;;;;1999.90;999.90;;;-5.00;99.90;;;;;;5092947;28;20027;-67
2024/01/11 02:37:54;;;;;;;1999.90;999.90;;;-5.00;99.90;;;;;;5086728;28;20024;-67
2024/01/11 02:40:20;;;;;;;1999.90;999.90;;;-5.10;99.90;;;;;;5078571;28;20107;-67
2024/01/11 02:42:46;;;;;;;1999.90;999.90;;;-5.10;99.90;;;;;;5091013;28;20108;-63
2024/01/11 02:45:12;;;;;;;1999.90;999.90;;;-5.10;99.90;;;;;;5092218;28;20028;-61
2024/01/11 02:47:38;;;;;;;1999.90;999.90;;;-5.10;99.90;;;;;;5093127;28;20332;-68
2024/01/11 02:50:06;;;;;;;1999.90;999.90;;;-5.10;99.90;;;;;;5074241;28;20032;-62
2024/01/11 02:52:33;;;;;;;1999.90;999.90;;;-5.00;99.90;;;;;;5092969;28;20025;-62
2024/01/11 02:54:58;;;;;;;1999.90;999.90;;;-5.00;99.90;;;;;;5092532;28;20063;-68
2024/01/11 02:57:24;;;;;;;1999.90;999.90;;;-5.10;99.90;;;;;;5077121;28;20036;-67
2024/01/11 02:59:51;;;;;;;1999.90;999.90;;;-5.00;99.90;;;;;;5085052;28;20032;-68
2024/01/11 03:02:17;;;;;;;1999.90;999.90;;;-5.00;99.90;;;;;;5088640;28;20043;-67
2024/01/11 03:04:42;;;;;;;1999.90;999.90;;;-4.90;99.90;;;;;;5086814;28;20354;-68
2024/01/11 03:07:08;;;;;;;1999.90;999.90;;;-4.90;99.90;;;;;;5090480;28;20024;-67
2024/01/11 03:09:34;;;;;;;1999.90;999.90;;;-4.80;99.90;;;;;;5089198;28;20145;-67
2024/01/11 03:12:00;;;;;;;1999.90;999.90;;;-4.80;99.90;;;;;;5093073;28;20257;-68
2024/01/11 03:14:26;;;;;;;1999.90;999.90;;;-4.80;99.90;;;;;;5092336;28;20028;-68
2024/01/11 03:16:52;;;;;;;1999.90;999.90;;;-4.90;99.90;;;;;;5092878;28;20111;-67
2024/01/11 03:19:17;;;;;;;1999.90;999.90;;;-4.90;99.90;;;;;;5092518;28;20043;-67
2024/01/11 03:21:46;;;;;;;1999.90;999.90;;;-4.80;99.90;;;;;;5077933;28;20405;-62
2024/01/11 03:24:13;;;;;;;1999.90;999.90;;;-4.80;99.90;;;;;;5089042;28;20122;-68
2024/01/11 03:26:39;;;;;;;1999.90;999.90;;;-4.80;99.90;;;;;;5084688;28;20037;-67
2024/01/11 03:29:05;;;;;;;1999.90;999.90;;;-4.80;99.90;;;;;;5083137;28;20028;-68
2024/01/11 03:31:31;;;;;;;1999.90;999.90;;;-4.80;99.90;;;;;;5091810;28;20062;-62
2024/01/11 03:33:57;;;;;;;1999.90;999.90;;;-4.80;99.90;;;;;;5074448;28;20027;-62
2024/01/11 03:36:24;;;;;;;1999.90;999.90;;;-4.80;99.90;;;;;;5091566;28;20039;-68
2024/01/11 03:38:50;;;;;;;1999.90;999.90;;;-4.80;99.90;;;;;;5084863;28;20040;-68
2024/01/11 03:41:16;;;;;;;1999.90;999.90;;;-4.80;99.90;;;;;;5085623;28;20031;-67
2024/01/11 03:43:42;;;;;;;1999.90;999.90;;;-4.90;99.90;;;;;;5085136;28;20024;-68
2024/01/11 03:46:07;;;;;;;1999.90;999.90;;;-4.90;99.90;;;;;;5092191;28;20376;-67
2024/01/11 03:48:35;;;;;;;1999.90;999.90;;;-5.00;99.90;;;;;;5092185;28;20475;-62
2024/01/11 03:51:01;;;;;;;1999.90;999.90;;;-5.00;99.90;;;;;;5091817;28;20066;-67
2024/01/11 03:53:28;;;;;;;1999.90;999.90;;;-5.10;99.90;;;;;;5091208;28;20059;-68
2024/01/11 03:55:54;;;;;;;1999.90;999.90;;;-5.10;99.90;;;;;;5092001;28;20129;-62
2024/01/11 03:58:20;;;;;;;1999.90;999.90;;;-5.10;99.90;;;;;;5091824;28;20024;-67
2024/01/11 04:00:45;;;;;;;1999.90;999.90;;;-5.10;99.90;;;;;;5092042;28;20299;-68
2024/01/11 04:03:11;;;;;;;1999.90;999.90;;;-5.00;99.90;;;;;;5088900;28;20034;-67
2024/01/11 04:05:37;;;;;;;1999.90;999.90;;;-5.00;99.90;;;;;;5091344;28;20411;-68
2024/01/11 04:08:06;;;;;;;1999.90;999.90;;;-5.00;99.90;;;;;;5092167;28;20048;-62
2024/01/11 04:10:32;;;;;;;1999.90;999.90;;;-5.00;99.90;;;;;;5091143;28;20020;-62
2024/01/11 04:12:59;;;;;;;1999.90;999.90;;;-5.00;99.90;;;;;;5092269;28;20073;-68
2024/01/11 04:15:25;;;;;;;1999.90;999.90;;;-5.00;99.90;;;;;;5091115;28;20031;-68
2024/01/11 04:17:51;;;;;;;1999.90;999.90;;;-5.00;99.90;;;;;;5065160;28;20493;-68
2024/01/11 04:20:17;;;;;;;1999.90;999.90;;;-5.10;99.90;;;;;;5092144;28;20028;-68
2024/01/11 04:22:43;;;;;;;1999.90;999.90;;;-5.10;99.90;;;;;;5091829;28;20017;-62
2024/01/11 04:25:08;;;;;;;1999.90;999.90;;;-5.10;99.90;;;;;;5071877;28;20024;-62
2024/01/11 04:27:34;;;;;;;1999.90;999.90;;;-5.10;99.90;;;;;;5081461;28;20472;-67
2024/01/11 04:30:00;;;;;;;1999.90;999.90;;;-5.20;99.90;;;;;;5091941;28;20435;-67
2024/01/11 04:32:26;;;;;;;1999.90;999.90;;;-5.10;99.90;;;;;;5091284;28;20059;-67
2024/01/11 04:34:51;;;;;;;1999.90;999.90;;;-5.10;99.90;;;;;;5092148;28;20486;-62
2024/01/11 04:37:18;;;;;;;1999.90;999.90;;;-5.00;99.90;;;;;;5091421;28;20109;-62
2024/01/11 04:39:44;;;;;;;1999.90;999.90;;;-5.00;99.90;;;;;;5071642;28;20059;-68
2024/01/11 04:42:09;;;;;;;1999.90;999.90;;;-4.90;99.90;;;;;;5092035;28;20066;-68
2024/01/11 04:44:35;;;;;;;1999.90;999.90;;;-4.90;99.90;;;;;;5091218;28;20029;-68
2024/01/11 04:47:01;;;;;;;1999.90;999.90;;;-4.90;99.90;;;;;;5091903;28;20031;-68
2024/01/11 04:49:26;;;;;;;1999.90;999.90;;;-4.90;99.90;;;;;;5091146;28;20013;-67
2024/01/11 04:51:52;;;;;;;1999.90;999.90;;;-4.90;99.90;;;;;;5091689;28;20040;-61
2024/01/11 04:54:18;;;;;;;1999.90;999.90;;;-4.90;99.90;;;;;;5090796;28;20028;-61
2024/01/11 04:56:44;;;;;;;1999.90;999.90;;;-4.90;99.90;;;;;;5091248;28;20050;-68
2024/01/11 04:59:10;;;;;;;1999.90;999.90;;;-4.90;99.90;;;;;;5093571;28;20074;-61
2024/01/11 05:01:35;;;;;;;1999.90;999.90;;;-4.90;99.90;;;;;;5094443;28;20031;-62
2024/01/11 05:04:01;;;;;;;1999.90;999.90;;;-4.90;99.90;;;;;;5086336;28;20466;-68
2024/01/11 05:06:27;;;;;;;1999.90;999.90;;;-5.00;99.90;;;;;;5095225;28;20027;-68
2024/01/11 05:08:52;;;;;;;1999.90;999.90;;;-5.00;99.90;;;;;;5093996;28;20032;-68
2024/01/11 05:11:20;;;;;;;1999.90;999.90;;;-4.90;99.90;;;;;;5094054;28;20635;-62
2024/01/11 05:13:47;;;;;;;1999.90;999.90;;;-5.00;99.90;;;;;;5092161;28;20342;-68
2024/01/11 05:16:27;;;;;;;1999.90;999.90;;;-5.00;99.90;;;;;;5095051;28;20093;-68
2024/01/11 05:18:54;;;;;;;1999.90;999.90;;;-5.00;99.90;;;;;;5094653;28;20471;-62
2024/01/11 05:21:21;;;;;;;1999.90;999.90;;;-5.10;99.90;;;;;;5095033;28;20024;-68
2024/01/11 05:23:47;;;;;;;1999.90;999.90;;;-5.10;99.90;;;;;;5094083;28;20027;-68
2024/01/11 05:26:14;;;;;;;1999.90;999.90;;;-5.00;99.90;;;;;;5090504;28;20119;-68
2024/01/11 05:28:40;;;;;;;1999.90;999.90;;;-5.00;99.90;;;;;;5088576;28;20093;-67
2024/01/11 05:31:07;;;;;;;1999.90;999.90;;;-5.10;99.90;;;;;;5094792;28;20431;-68
2024/01/11 05:33:34;;;;;;;1999.90;999.90;;;-5.10;99.90;;;;;;5083971;28;20269;-62
2024/01/11 05:35:59;;;;;;;1999.90;999.90;;;-5.20;99.90;;;;;;5094125;28;20032;-68
2024/01/11 05:38:25;;;;;;;1999.90;999.90;;;-5.30;99.90;;;;;;5094527;28;20032;-68
2024/01/11 05:40:51;;;;;;;1999.90;999.90;;;-5.20;99.90;;;;;;5085197;28;21302;-62
2024/01/11 05:43:16;;;;;;;1999.90;999.90;;;-5.20;99.90;;;;;;5094654;28;20378;-67
2024/01/11 05:45:42;;;;;;;1999.90;999.90;;;-5.30;99.90;;;;;;5094073;28;20035;-68
2024/01/11 05:48:08;;;;;;;1999.90;999.90;;;-5.40;99.90;;;;;;5090205;28;20016;-61
2024/01/11 05:50:33;;;;;;;1999.90;999.90;;;-5.40;99.90;;;;;;5081418;28;20033;-68
2024/01/11 05:52:59;;;;;;;1999.90;999.90;;;-5.40;99.90;;;;;;5091967;28;20044;-62
2024/01/11 05:55:24;;;;;;;1999.90;999.90;;;-5.30;99.90;;;;;;5093327;28;20020;-62
2024/01/11 05:57:50;;;;;;;1999.90;999.90;;;-5.20;99.90;;;;;;5094333;28;20028;-67
2024/01/11 06:00:16;;;;;;;1999.90;999.90;;;-5.20;99.90;;;;;;5094009;28;20028;-62
2024/01/11 06:02:42;;;;;;;1999.90;999.90;;;-5.20;99.90;;;;;;5093677;28;20024;-63
2024/01/11 06:05:09;;;;;;;1999.90;999.90;;;-5.30;99.90;;;;;;5088788;28;21526;-68
2024/01/11 06:07:34;;;;;;;1999.90;999.90;;;-5.30;99.90;;;;;;5093689;28;20024;-68
2024/01/11 06:10:02;;;;;;;1999.90;999.90;;;-5.20;99.90;;;;;;5086440;28;20082;-68
2024/01/11 06:12:28;;;;;;;1999.90;999.90;;;-5.20;99.90;;;;;;5093692;28;20024;-68
2024/01/11 06:14:54;;;;;;;1999.90;999.90;;;-5.20;99.90;;;;;;5094096;28;20080;-67
2024/01/11 06:17:20;;;;;;;1999.90;999.90;;;-5.10;99.90;;;;;;5077213;28;20084;-61
2024/01/11 06:19:45;;;;;;;1999.90;999.90;;;-5.20;99.90;;;;;;5093484;28;20103;-63
2024/01/11 06:22:11;;;;;;;1999.90;999.90;;;-5.20;99.90;;;;;;5093318;28;20027;-68
2024/01/11 06:24:37;;;;;;;1999.90;999.90;;;-5.20;99.90;;;;;;5081817;28;20028;-68
2024/01/11 06:27:03;;;;;;;1999.90;999.90;;;-5.20;99.90;;;;;;5083583;28;20031;-68
2024/01/11 06:29:28;;;;;;;1999.90;999.90;;;-5.20;99.90;;;;;;5093819;28;20290;-67
2024/01/11 06:31:54;;;;;;;1999.90;999.90;;;-5.10;99.90;;;;;;5092499;28;20067;-68
2024/01/11 06:34:20;;;;;;;1999.90;999.90;;;-5.10;99.90;;;;;;5089138;28;20322;-62
2024/01/11 06:36:45;;;;;;;1999.90;999.90;;;-5.10;99.90;;;;;;5075002;28;20016;-65
2024/01/11 06:39:12;;;;;;;1999.90;999.90;;;-5.10;99.90;;;;;;5093037;28;20024;-68
2024/01/11 06:41:38;;;;;;;1999.90;999.90;;;-5.10;99.90;;;;;;5093617;28;20054;-68
2024/01/11 06:44:04;;;;;;;1999.90;999.90;;;-5.10;99.90;;;;;;5091632;28;20028;-62
2024/01/11 06:46:30;;;;;;;1999.90;999.90;;;-5.10;99.90;;;;;;5092557;28;20256;-68
2024/01/11 06:48:56;;;;;;;1999.90;999.90;;;-5.10;99.90;;;;;;5092149;28;20051;-62
2024/01/11 06:51:23;;;;;;;1999.90;999.90;;;-4.90;99.90;;;;;;5093009;28;20373;-68
2024/01/11 06:53:49;;;;;;;;;;;-4.90;99.90;;;;;;5093619;28;20044;-68
2024/01/11 06:56:18;;;;;;;;;;;-4.90;99.90;;;;;;5091802;28;19914;-67
2024/01/11 06:58:45;;;;;;;1999.90;999.90;;;-4.90;99.90;;;;;;5082930;28;19912;-68
2024/01/11 07:01:11;;;;;;;1999.90;999.90;;;-4.90;99.90;;;;;;5091300;28;20402;-68
2024/01/11 07:03:37;;;;;;;1999.90;999.90;;;-5.00;99.90;;;;;;5089323;28;20126;-68
2024/01/11 07:06:03;;;;;;;1999.90;999.90;;;-5.00;99.90;;;;;;5080217;28;20035;-67
2024/01/11 07:08:30;;;;;;;1999.90;999.90;;;-5.10;99.90;;;;;;5085920;28;20442;-68
2024/01/11 07:10:56;;;;;;;1999.90;999.90;;;-5.10;99.90;;;;;;5077194;28;20024;-68
2024/01/11 07:13:22;;;;;;;1999.90;999.90;;;-5.10;99.90;;;;;;5078188;28;20066;-67
2024/01/11 07:15:48;;;;;;;1999.90;999.90;;;-5.10;99.90;;;;;;5067097;28;20032;-63
2024/01/11 07:18:14;;;;;;;1999.90;999.90;;;-5.20;99.90;;;;;;5091972;28;20028;-62
2024/01/11 07:20:40;;;;;;;1999.90;999.90;;;-5.30;99.90;;;;;;5089001;28;20032;-62
2024/01/11 07:23:06;;;;;;;1999.90;999.90;;;-5.30;99.90;;;;;;5071897;28;20115;-68
2024/01/11 07:25:32;;;;;;;1999.90;999.90;;;-5.30;99.90;;;;;;5092167;28;20040;-68
2024/01/11 07:27:58;;;;;;;1999.90;999.90;;;-5.30;99.90;;;;;;5085078;28;20023;-62
2024/01/11 07:30:24;;;;;;;1999.90;999.90;;;-5.20;99.90;;;;;;5092570;28;20036;-66
2024/01/11 07:32:49;;;;;;;1999.90;999.90;;;-5.20;99.90;;;;;;5091837;28;20434;-62
2024/01/11 07:35:15;;;;;;;1999.90;999.90;;;-5.20;99.90;;;;;;5086084;28;20027;-62
2024/01/11 07:37:41;;;;;;;1999.90;999.90;;;-5.20;99.90;;;;;;5091241;28;20078;-62
2024/01/11 07:40:10;;;;;;;1999.90;999.90;;;-5.20;99.90;;;;;;5091434;28;20093;-62
2024/01/11 07:42:38;;;;;;;1999.90;999.90;;;-5.10;99.90;;;;;;5090647;28;20032;-62
2024/01/11 07:45:05;;;;;;;1999.90;999.90;;;-4.90;99.90;;;;;;5091360;28;20419;-67
2024/01/11 07:47:31;;;;;;;1999.90;999.90;;;-4.90;99.90;;;;;;5068715;28;20608;-68
2024/01/11 07:49:57;;;;;;;1999.90;999.90;;;-4.80;99.90;;;;;;5090375;28;20036;-62
2024/01/11 07:52:22;;;;;;;1999.90;999.90;;;-4.80;99.90;;;;;;5081596;28;20499;-68
2024/01/11 07:54:48;;;;;;;1999.90;999.90;;;-4.70;99.90;;;;;;5086498;28;20319;-67
2024/01/11 07:57:13;;;;;;;1999.90;999.90;;;-4.70;99.90;;;;;;5092580;28;20021;-62
2024/01/11 07:59:39;;;;;;;1999.90;999.90;;;-4.70;99.90;;;;;;5091400;28;20036;-68
2024/01/11 08:02:06;;;;;;;1999.90;999.90;;;-4.80;99.90;;;;;;5092195;28;20035;-68
2024/01/11 08:04:31;;;;;;;;;;;-4.70;99.90;;;;;;5092799;28;20350;-68
2024/01/11 08:06:59;;;;;;;1999.90;999.90;;;-4.70;99.90;;;;;;5087331;28;19956;-62
2024/01/11 08:09:26;;;;;;;1999.90;999.90;;;-4.80;99.90;;;;;;5091856;28;20310;-62
2024/01/11 08:11:54;;;;;;;;;;;-4.80;99.90;;;;;;5075861;28;20028;-67
2024/01/11 08:14:20;;;;;;;1999.90;999.90;;;-4.60;99.90;;;;;;5087187;28;19942;-68
2024/01/11 08:16:46;;;;;;;1999.90;999.90;;;-4.50;99.90;;;;;;5072977;28;20031;-66
2024/01/11 08:19:16;;;;;;;1999.90;999.90;;;-4.40;99.90;;;;;;5080210;28;20034;-63
2024/01/11 08:21:42;;;;;;;1999.90;999.90;;;-4.30;99.90;;;;;;5073388;28;20143;-68
2024/01/11 08:24:08;;;;;;;1999.90;999.90;;;-4.20;99.90;;;;;;5088824;28;20107;-68
2024/01/11 08:26:34;;;;;;;1999.90;999.90;;;-4.10;99.90;;;;;;5085334;28;20178;-67
2024/01/11 08:29:00;;;;;;;1999.90;999.90;;;-4.10;99.90;;;;;;5085521;28;20564;-68
2024/01/11 08:31:25;;;;;;;1999.90;999.90;;;-3.90;99.90;;;;;;5075026;28;20112;-68
2024/01/11 08:33:51;;;;;;;1999.90;999.90;;;-3.80;99.90;;;;;;5088501;28;20271;-67
2024/01/11 08:36:17;;;;;;;1999.90;999.90;;;-3.50;99.90;;;;;;5096080;28;20426;-67
2024/01/11 08:38:43;;;;;;;1999.90;999.90;;;-3.30;99.90;;;;;;5093242;28;20103;-67
2024/01/11 08:41:08;;;;;;;1999.90;999.90;;;-3.10;99.90;;;;;;5094223;28;20028;-68
2024/01/11 08:43:34;;;;;;;1999.90;999.90;;;-2.90;99.90;;;;;;5095495;28;20111;-67
2024/01/11 08:46:01;;;;;;;1999.90;999.90;;;-2.80;99.90;;;;;;5092544;28;20032;-67
2024/01/11 08:48:28;;;;;;;1999.90;999.90;;;-2.60;99.90;;;;;;5095158;28;20016;-67
2024/01/11 08:50:54;;;;;;;1999.90;999.90;;;-2.40;99.90;;;;;;5092311;28;20123;-67
2024/01/11 08:53:19;;;;;;;1999.90;999.90;;;-2.20;99.90;;;;;;5095354;28;20103;-68
2024/01/11 08:55:45;;;;;;;1999.90;999.90;;;-2.10;99.90;;;;;;5089878;28;20050;-67
2024/01/11 08:58:12;;;;;;;1999.90;999.90;;;-2.00;99.90;;;;;;5091875;28;20023;-61
2024/01/11 09:00:38;;;;;;;1999.90;999.90;;;-1.90;99.90;;;;;;5085898;28;20032;-62
2024/01/11 09:03:04;;;;;;;1999.90;999.90;;;-1.70;99.90;;;;;;5090627;28;20530;-68
2024/01/11 09:05:29;;;;;;;1999.90;999.90;;;-1.70;99.90;;;;;;5091387;28;20442;-67
2024/01/11 09:07:55;;;;;;;1999.90;999.90;;;-1.70;99.90;;;;;;5091889;28;20035;-68
2024/01/11 09:10:22;;;;;;;1999.90;999.90;;;-1.60;99.90;;;;;;5093500;28;20016;-68
2024/01/11 09:12:48;;;;;;;;;;;-1.50;99.90;;;;;;5089899;28;20348;-62
2024/01/11 09:15:14;;;;;;;1999.90;999.90;;;-1.50;99.90;;;;;;5092007;28;20038;-62
2024/01/11 09:17:40;;;;;;;1999.90;999.90;;;-1.40;99.90;;;;;;5082191;28;20099;-68
2024/01/11 09:20:06;;;;;;;1999.90;999.90;;;-1.40;99.90;;;;;;5080830;28;20372;-67
2024/01/11 09:22:32;;;;;;;1999.90;999.90;;;-1.30;99.90;;;;;;5094061;28;20047;-62
2024/01/11 09:24:58;;;;;;;1999.90;999.90;;;-1.20;99.90;;;;;;5093959;28;20062;-68
2024/01/11 09:27:23;;;;;;;1999.90;999.90;;;-1.20;99.90;;;;;;5084624;28;20012;-68
2024/01/11 09:29:49;;;;;;;1999.90;999.90;;;-1.20;99.90;;;;;;5094995;28;20589;-67
2024/01/11 09:32:15;;;;;;;1999.90;999.90;;;-1.20;99.90;;;;;;5094250;28;20048;-66
2024/01/11 09:34:41;;;;;;;1999.90;999.90;;;-1.10;99.90;;;;;;5095101;28;20027;-68
2024/01/11 09:37:06;;;;;;;1999.90;999.90;;;-1.00;99.90;;;;;;5094638;28;20527;-62
2024/01/11 09:39:32;;;;;;;1999.90;999.90;;;-1.00;99.90;;;;;;5093827;28;20315;-68
2024/01/11 09:42:12;;;;;;;1999.90;999.90;;;-1.00;99.90;;;;;;5095292;28;20039;-67
2024/01/11 09:44:39;;;;;;;1999.90;999.90;;;-0.90;99.90;;;;;;5076332;28;20028;-68
2024/01/11 09:47:07;;;;;;;1999.90;999.90;;;-0.90;99.90;;;;;;5094633;28;20421;-68
2024/01/11 09:49:35;;;;;;;1999.90;999.90;;;-0.90;99.90;;;;;;5093776;28;20423;-68
2024/01/11 09:52:02;;;;;;;1999.90;999.90;;;-0.80;99.90;;;;;;5094553;28;20051;-68
2024/01/11 09:54:28;;;;;;;1999.90;999.90;;;-0.70;99.90;;;;;;5094212;28;20543;-68
2024/01/11 09:56:57;;;;;;;1999.90;999.90;;;-0.70;99.90;;;;;;5093943;28;20085;-68
2024/01/11 09:59:24;;;;;;;1999.90;999.90;;;-0.60;99.90;;;;;;5094598;28;20024;-67
2024/01/11 10:01:51;;;;;;;1999.90;999.90;;;-0.50;99.90;;;;;;5093970;28;20062;-67
2024/01/11 10:04:17;;;;;;;1999.90;999.90;;;-0.50;99.90;;;;;;5094438;28;20028;-68
2024/01/11 10:06:43;;;;;;;1999.90;999.90;;;-0.40;99.90;;;;;;5093896;28;20030;-68
2024/01/11 10:09:09;;;;;;;1999.90;999.90;;;-0.40;99.90;;;;;;5093943;28;20051;-67
2024/01/11 10:11:35;;;;;;;1999.90;999.90;;;-0.30;99.90;;;;;;5094528;28;20066;-68
2024/01/11 10:14:01;;;;;;;1999.90;999.90;;;-0.20;99.90;;;;;;5087068;28;20028;-68
2024/01/11 10:16:30;;;;;;;1999.90;999.90;;;-0.20;99.90;;;;;;5094518;28;20032;-68
2024/01/11 10:18:57;;;;;;;1999.90;999.90;;;-0.20;99.90;;;;;;5093516;28;20020;-68
2024/01/11 10:21:23;;;;;;;1999.90;999.90;;;-0.10;99.90;;;;;;5094398;28;20028;-68
2024/01/11 10:23:50;;;;;;;1999.90;999.90;;;0.00;99.90;;;;;;5093071;28;20031;-67
2024/01/11 10:26:16;;;;;;;1999.90;999.90;;;0.10;99.90;;;;;;5089934;28;20067;-68
2024/01/11 10:28:46;;;;;;;1999.90;999.90;;;0.10;99.90;;;;;;5081720;28;20024;-68
2024/01/11 10:31:12;;;;;;;1999.90;999.90;;;0.10;99.90;;;;;;5093930;28;20040;-68
2024/01/11 10:33:38;;;;;;;1999.90;999.90;;;0.20;99.90;;;;;;5082580;28;20024;-64
2024/01/11 10:36:04;;;;;;;1999.90;999.90;;;0.30;99.90;;;;;;5093656;28;20042;-68
2024/01/11 10:38:32;;;;;;;1999.90;999.90;;;0.30;99.90;;;;;;5093214;28;20032;-68
2024/01/11 10:41:00;;;;;;;1999.90;999.90;;;0.30;99.90;;;;;;5093469;28;20032;-68
2024/01/11 10:43:27;;;;;;;1999.90;999.90;;;0.30;99.90;;;;;;5093610;28;20024;-68
2024/01/11 10:45:57;;;;;;;1999.90;999.90;;;0.40;99.90;;;;;;5093275;28;20020;-67
2024/01/11 10:48:25;;;;;;;1999.90;999.90;;;0.40;99.90;;;;;;5094091;28;20039;-68
2024/01/11 10:51:00;;;;;;;1999.90;999.90;;;0.40;99.90;;;;;;5092909;28;20031;-68
2024/01/11 10:53:35;;;;;;;1999.90;999.90;;;0.40;99.90;;;;;;5093325;28;20024;-68
2024/01/11 10:56:03;;;;;;;1999.90;999.90;;;0.60;99.90;;;;;;5093551;28;20065;-67
2024/01/11 10:58:31;;;;;;;1999.90;999.90;;;0.50;99.90;;;;;;5093101;28;20047;-67
2024/01/11 11:00:59;;;;;;;1999.90;999.90;;;0.60;99.90;;;;;;5093494;28;20095;-68
2024/01/11 11:03:26;;;;;;;1999.90;999.90;;;0.60;99.90;;;;;;5092651;28;20031;-68
2024/01/11 11:05:55;;;;;;;1999.90;999.90;;;0.60;99.90;;;;;;5093388;28;20016;-67
2024/01/11 11:08:23;;;;;;;1999.90;999.90;;;0.70;99.90;;;;;;5092829;28;20070;-68
2024/01/11 11:10:54;;;;;;;1999.90;999.90;;;0.60;99.90;;;;;;5092965;28;20020;-68
2024/01/11 11:13:21;;;;;;;1999.90;999.90;;;0.60;99.90;;;;;;5080524;28;20085;-68
2024/01/11 11:15:48;;;;;;;1999.90;999.90;;;0.70;99.90;;;;;;5093128;28;20062;-68
2024/01/11 11:18:16;;;;;;;1999.90;999.90;;;0.70;99.90;;;;;;5093180;28;20028;-64
2024/01/11 11:20:42;;;;;;;1999.90;999.90;;;0.80;99.90;;;;;;5092331;28;20095;-63
2024/01/11 11:23:12;;;;;;;1999.90;999.90;;;0.90;99.90;;;;;;5093173;28;20491;-68
2024/01/11 11:25:40;;;;;;;1999.90;999.90;;;0.90;99.90;;;;;;5092158;28;20052;-64
2024/01/11 11:28:06;;;;;;;1999.90;999.90;;;1.00;99.90;;;;;;5083279;28;20030;-70
2024/01/11 11:30:40;;;;;;;1999.90;999.90;;;1.00;99.90;;;;;;5092311;28;20067;-66
2024/01/11 11:33:09;;;;;;;1999.90;999.90;;;1.10;99.90;;;;;;5092952;28;20038;-70
2024/01/11 11:35:36;;;;;;;1999.90;999.90;;;1.20;99.90;;;;;;5092185;28;20047;-70
2024/01/11 11:38:05;;;;;;;1999.90;999.90;;;1.30;99.90;;;;;;5093092;28;20055;-70
2024/01/11 11:40:42;;;;;;;1999.90;999.90;;;1.40;99.90;;;;;;5092517;28;20081;-66
2024/01/11 11:43:08;;;;;;;1999.90;999.90;;;1.50;99.90;;;;;;5080274;28;20103;-70
2024/01/11 11:45:35;;;;;;;1999.90;999.90;;;1.70;99.90;;;;;;5093030;28;20507;-71
2024/01/11 11:48:00;;;;;;;1999.90;999.90;;;1.80;99.90;;;;;;5092215;28;20288;-67
2024/01/11 11:50:26;;;;;;;1999.90;999.90;;;1.80;99.90;;;;;;5092703;28;20047;-70
2024/01/11 11:52:56;;;;;;;1999.90;999.90;;;1.80;99.90;;;;;;5092576;28;20426;-70
2024/01/11 11:55:25;;;;;;;1999.90;999.90;;;1.90;99.90;;;;;;5078262;28;20111;-71
2024/01/11 11:57:55;;;;;;;1999.90;999.90;;;2.00;99.90;;;;;;5092670;28;20028;-70
2024/01/11 12:00:21;;;;;;;1999.90;999.90;;;2.00;99.90;;;;;;5092032;28;20024;-71